09/21 23:00 更新

3,000ftに雲が少し
4,000ftに雲が多い
雲が多い

地上風: 210°3kt
(190°~ 250°で変動)

上空風
13,000ft: 未計測
10,000ft: 未計測
 7,000ft: 未計測
 3,000ft: 未計測

地上: 21℃
上空: 0.8℃

日没: 17:40

RJTJ 211400Z 21003KT 190V250 9999 FEW030 BKN040 BKN/// 21/17 Q1017 RMK 1CU030 5SC040 A3005=